createdAt,value
2022-08-14T00:03:12.078Z,86
2022-08-14T00:08:46.191Z,86
2022-08-14T00:13:54.432Z,87
2022-08-14T00:19:22.169Z,87
2022-08-14T00:24:31.812Z,86
2022-08-14T00:29:49.907Z,84
2022-08-14T00:35:04.452Z,75
2022-08-14T00:40:36.240Z,74
2022-08-14T00:45:53.486Z,79
2022-08-14T00:51:03.023Z,80
2022-08-14T00:56:16.313Z,79
2022-08-14T01:01:30.629Z,80
2022-08-14T01:06:46.954Z,79
2022-08-14T01:12:11.601Z,78
2022-08-14T01:17:23.319Z,66
2022-08-14T01:22:43.301Z,69
2022-08-14T01:27:59.656Z,67
2022-08-14T01:33:13.467Z,75
2022-08-14T01:38:26.783Z,75
2022-08-14T01:43:44.962Z,74
2022-08-14T01:49:08.249Z,73
2022-08-14T01:54:22.917Z,70
2022-08-14T01:59:46.069Z,67
2022-08-14T02:04:58.667Z,68
2022-08-14T02:10:18.210Z,69
2022-08-14T02:15:35.785Z,63
2022-08-14T02:20:49.104Z,55
2022-08-14T02:26:31.150Z,59
2022-08-14T02:32:30.196Z,62
2022-08-14T02:37:50.267Z,55
2022-08-14T02:43:10.933Z,57
2022-08-14T02:49:07.088Z,59
2022-08-14T02:54:21.053Z,58
2022-08-14T02:59:37.159Z,58
2022-08-14T03:04:50.954Z,57
2022-08-14T03:10:34.557Z,58
2022-08-14T03:15:43.723Z,57
2022-08-14T03:20:57.433Z,57
2022-08-14T03:26:18.122Z,48
2022-08-14T03:31:46.736Z,49
2022-08-14T03:39:23.860Z,50
2022-08-14T03:45:36.417Z,47
2022-08-14T03:50:57.063Z,47
2022-08-14T03:56:22.044Z,44
2022-08-14T04:02:02.574Z,45
2022-08-14T04:07:49.552Z,38
2022-08-14T04:13:39.578Z,30
2022-08-14T04:18:56.646Z,28
2022-08-14T04:24:14.214Z,29
2022-08-14T04:29:33.444Z,32
2022-08-14T04:34:52.935Z,35
2022-08-14T04:40:11.443Z,35
2022-08-14T04:45:23.161Z,35
2022-08-14T04:50:54.514Z,34
2022-08-14T04:56:03.135Z,31
2022-08-14T05:01:41.447Z,30
2022-08-14T05:07:00.596Z,28
2022-08-14T05:13:16.245Z,27
2022-08-14T05:19:30.231Z,22
2022-08-14T05:24:38.690Z,19
2022-08-14T05:29:50.696Z,19
2022-08-14T05:35:02.546Z,12
2022-08-14T05:40:15.623Z,12
2022-08-14T05:45:28.687Z,11
2022-08-14T05:50:50.808Z,13
2022-08-14T05:56:03.585Z,13
2022-08-14T06:01:15.600Z,16
2022-08-14T06:06:27.599Z,19
2022-08-14T06:11:40.010Z,20
2022-08-14T06:16:54.066Z,24
2022-08-14T06:22:05.841Z,31
2022-08-14T06:27:34.240Z,41
2022-08-14T06:32:45.010Z,47
2022-08-14T06:37:57.810Z,47
2022-08-14T06:43:10.634Z,51
2022-08-14T06:48:22.787Z,54
2022-08-14T06:53:35.582Z,55
2022-08-14T06:58:47.534Z,60
2022-08-14T07:04:00.622Z,63
2022-08-14T07:09:23.833Z,70
2022-08-14T07:14:35.247Z,74
2022-08-14T07:19:51.682Z,77
2022-08-14T07:25:09.056Z,83
2022-08-14T07:30:35.815Z,86
2022-08-14T07:36:00.115Z,90
2022-08-14T07:41:17.087Z,93
2022-08-14T07:46:31.895Z,92
2022-08-14T07:51:50.948Z,94
2022-08-14T07:57:25.530Z,94
2022-08-14T08:02:41.056Z,95
2022-08-14T08:07:53.680Z,93
2022-08-14T08:13:06.138Z,88
2022-08-14T08:18:31.373Z,90
2022-08-14T08:23:52.127Z,87
2022-08-14T08:29:11.383Z,85
2022-08-14T08:34:25.173Z,83
2022-08-14T08:40:06.505Z,83
2022-08-14T08:45:19.096Z,80
2022-08-14T08:55:45.313Z,72
2022-08-14T09:00:59.234Z,71
2022-08-14T09:07:11.844Z,70
2022-08-14T09:12:21.519Z,69
2022-08-14T09:17:32.505Z,67
2022-08-14T09:22:51.072Z,65
2022-08-14T09:28:13.441Z,62
2022-08-14T09:33:30.215Z,60
2022-08-14T09:38:48.724Z,58
2022-08-14T09:44:07.048Z,60
2022-08-14T09:49:20.918Z,57
2022-08-14T09:54:33.068Z,59
2022-08-14T09:59:45.585Z,57
2022-08-14T10:04:58.153Z,57
2022-08-14T10:10:24.617Z,57
2022-08-14T10:15:34.458Z,56
2022-08-14T10:20:50.798Z,56
2022-08-14T10:26:02.482Z,55
2022-08-14T10:31:15.018Z,56
2022-08-14T10:37:02.351Z,55
2022-08-14T10:42:21.747Z,52
2022-08-14T10:48:42.140Z,51
2022-08-14T10:53:58.450Z,51
2022-08-14T10:59:11.690Z,49
2022-08-14T11:04:31.167Z,50
2022-08-14T11:09:48.371Z,49
2022-08-14T11:15:05.126Z,48
2022-08-14T11:20:19.142Z,46
2022-08-14T11:30:55.043Z,45
2022-08-14T11:36:20.460Z,43
2022-08-14T11:41:56.276Z,39
2022-08-14T11:47:09.450Z,38
2022-08-14T11:52:22.719Z,36
2022-08-14T12:08:13.448Z,37
2022-08-14T12:13:31.410Z,37
2022-08-14T12:18:45.873Z,37
2022-08-14T12:24:03.329Z,39
2022-08-14T12:29:16.752Z,40
2022-08-14T12:34:29.010Z,40
2022-08-14T13:00:25.190Z,50
2022-08-14T13:05:41.094Z,50
2022-08-14T13:26:28.953Z,53
2022-08-14T13:31:44.189Z,53
2022-08-14T13:42:14.478Z,54
2022-08-14T13:47:27.096Z,54
2022-08-14T13:53:00.726Z,54
2022-08-14T13:58:36.144Z,54
2022-08-14T14:03:47.708Z,54
2022-08-14T14:09:00.073Z,54
2022-08-14T14:14:55.128Z,53
2022-08-14T14:20:05.298Z,53
2022-08-14T14:25:23.101Z,52
2022-08-14T14:31:01.152Z,51
2022-08-14T14:36:21.471Z,50
2022-08-14T14:41:44.811Z,49
2022-08-14T15:02:36.963Z,51
2022-08-14T15:07:49.022Z,50
2022-08-14T15:13:09.319Z,51
2022-08-14T15:23:45.618Z,51
2022-08-14T15:29:06.830Z,52
2022-08-14T15:34:57.372Z,52
2022-08-14T15:40:23.092Z,53
2022-08-14T16:06:18.695Z,53
2022-08-14T16:11:47.621Z,54
2022-08-14T16:17:07.465Z,55
2022-08-14T16:23:01.115Z,55
2022-08-14T16:28:08.166Z,56
2022-08-14T16:34:47.801Z,56
2022-08-14T16:40:02.374Z,56
2022-08-14T16:45:14.458Z,57
2022-08-14T16:50:46.024Z,57
2022-08-14T16:55:56.684Z,58
2022-08-14T17:01:28.927Z,60
2022-08-14T17:06:45.381Z,59
2022-08-14T17:12:08.435Z,59
2022-08-14T17:17:39.500Z,60
2022-08-14T17:22:55.499Z,60
2022-08-14T17:28:55.255Z,60
2022-08-14T17:34:02.139Z,60
2022-08-14T17:39:39.809Z,62
2022-08-14T17:44:52.285Z,62
2022-08-14T17:51:03.188Z,63
2022-08-14T17:56:16.656Z,64
2022-08-14T18:01:34.272Z,65
2022-08-14T18:08:40.468Z,63
2022-08-14T18:13:53.702Z,63
2022-08-14T18:19:05.792Z,64
2022-08-14T18:24:32.297Z,65
2022-08-14T18:29:43.276Z,67
2022-08-14T18:34:56.254Z,69
2022-08-14T18:40:13.551Z,71
2022-08-14T18:45:31.253Z,73
2022-08-14T18:50:43.486Z,76
2022-08-14T18:55:55.713Z,79
2022-08-14T19:01:22.405Z,82
2022-08-14T19:06:33.414Z,84
2022-08-14T19:11:51.514Z,85
2022-08-14T19:17:05.974Z,86
2022-08-14T19:22:30.747Z,83
2022-08-14T19:27:47.235Z,82
2022-08-14T19:33:14.672Z,86
2022-08-14T19:38:34.407Z,87
2022-08-14T19:43:58.078Z,83
2022-08-14T19:49:09.235Z,83
2022-08-14T19:54:20.738Z,83
2022-08-14T19:59:58.850Z,82
2022-08-14T20:05:12.901Z,81
2022-08-14T20:12:04.701Z,81
2022-08-14T20:17:42.079Z,81
2022-08-14T20:22:56.219Z,81
2022-08-14T20:28:31.384Z,82
2022-08-14T20:33:50.333Z,83
2022-08-14T20:39:06.667Z,86
2022-08-14T20:44:29.249Z,87
2022-08-14T20:49:38.953Z,89
2022-08-14T20:54:52.559Z,91
2022-08-14T21:00:05.044Z,94
2022-08-14T21:05:20.692Z,96
2022-08-14T21:11:03.554Z,96
2022-08-14T21:16:59.452Z,96
2022-08-14T21:22:11.873Z,94
2022-08-14T21:27:27.100Z,93
2022-08-14T21:32:58.942Z,94
2022-08-14T21:38:18.375Z,95
2022-08-14T21:43:32.943Z,96
2022-08-14T21:48:45.916Z,96
2022-08-14T21:54:50.956Z,96
2022-08-14T22:00:39.544Z,95
2022-08-14T22:05:49.220Z,94
2022-08-14T22:11:00.998Z,93
2022-08-14T22:17:17.496Z,90
2022-08-14T22:22:26.310Z,90
2022-08-14T22:27:58.543Z,92
2022-08-14T22:33:17.170Z,92
2022-08-14T22:38:50.694Z,92
2022-08-14T22:44:00.009Z,92
2022-08-14T22:50:34.303Z,93
2022-08-14T22:55:39.545Z,94
2022-08-14T23:00:51.847Z,93
2022-08-14T23:07:14.581Z,92
2022-08-14T23:12:30.432Z,92
2022-08-14T23:17:41.588Z,95
2022-08-14T23:22:53.402Z,96
2022-08-14T23:28:05.817Z,96
2022-08-14T23:33:53.790Z,96
2022-08-14T23:39:19.938Z,95
2022-08-14T23:44:30.161Z,96
2022-08-14T23:50:38.609Z,97
2022-08-14T23:55:57.852Z,97
